Time;durP1;ratioP1;P1;durP2;ratioP2;P2;SDS_P1;SDS_P2;PMS_P1;PMS_P2;Temp;Humidity;BMP_temperature;BMP_pressure;BME280_temperature;BME280_humidity;BME280_pressure;Samples;Min_cycle;Max_cycle;Signal;HPM_P1;HPM_P2
2024/01/16 00:01:06;;;;;;;9.77;1.02;;;0.50;99.90;;;;;;5113866;28;20046;-84
2024/01/16 00:03:32;;;;;;;6.68;0.80;;;0.10;99.90;;;;;;5112394;28;20055;-84
2024/01/16 00:05:58;;;;;;;10.73;0.70;;;-0.20;99.90;;;;;;5113669;28;20127;-84
2024/01/16 00:08:24;;;;;;;4.25;0.50;;;0.40;99.90;;;;;;5095549;28;20032;-84
2024/01/16 00:10:50;;;;;;;3.20;0.60;;;0.10;99.90;;;;;;5111927;28;20476;-84
2024/01/16 00:13:16;;;;;;;5.97;0.77;;;0.90;99.90;;;;;;5112271;28;20047;-84
2024/01/16 00:15:43;;;;;;;3.35;0.68;;;1.50;99.90;;;;;;5112898;28;20466;-84
2024/01/16 00:18:08;;;;;;;4.70;0.52;;;0.20;99.90;;;;;;5095218;28;20040;-84
2024/01/16 00:20:34;;;;;;;4.72;0.60;;;0.80;99.90;;;;;;5112359;28;20065;-84
2024/01/16 00:23:00;;;;;;;7.07;0.50;;;0.10;99.90;;;;;;5112145;28;20040;-85
2024/01/16 00:25:26;;;;;;;6.45;0.57;;;0.20;99.90;;;;;;5112069;28;20059;-84
2024/01/16 00:27:52;;;;;;;6.10;0.50;;;0.60;99.90;;;;;;5112351;28;20500;-84
2024/01/16 00:30:18;;;;;;;7.95;0.55;;;-0.40;99.90;;;;;;5111715;28;20050;-85
2024/01/16 00:32:44;;;;;;;3.08;0.40;;;-0.20;99.90;;;;;;5111749;28;20063;-85
2024/01/16 00:35:10;;;;;;;6.97;0.52;;;-0.30;99.90;;;;;;5095083;28;20148;-84
2024/01/16 00:37:39;;;;;;;2.30;0.40;;;0.70;99.90;;;;;;5112090;28;20096;-85
2024/01/16 00:40:08;;;;;;;1.95;0.30;;;0.70;99.90;;;;;;5111939;28;20043;-84
2024/01/16 00:42:34;;;;;;;1.85;0.32;;;-0.40;99.90;;;;;;5094692;28;20042;-85
2024/01/16 00:45:00;;;;;;;5.68;0.43;;;-0.40;99.90;;;;;;5095237;28;20054;-84
2024/01/16 00:47:26;;;;;;;4.85;0.60;;;-0.50;99.90;;;;;;5094820;28;20036;-84
2024/01/16 00:49:52;;;;;;;2.50;0.40;;;0.00;99.90;;;;;;5115931;28;20210;-84
2024/01/16 00:52:18;;;;;;;3.63;0.40;;;0.00;99.90;;;;;;5117140;28;20040;-84
2024/01/16 00:54:44;;;;;;;3.63;0.30;;;-0.60;99.90;;;;;;5117478;28;20054;-85
2024/01/16 00:57:09;;;;;;;3.55;0.73;;;-0.70;99.90;;;;;;5117423;28;20072;-85
2024/01/16 00:59:36;;;;;;;3.58;0.43;;;0.40;99.90;;;;;;5117108;28;20043;-84
2024/01/16 01:02:03;;;;;;;9.27;0.50;;;-1.30;99.90;;;;;;5115384;28;20087;-84
2024/01/16 01:04:29;;;;;;;7.60;0.52;;;-0.50;99.90;;;;;;5117081;28;20056;-84
2024/01/16 01:06:55;;;;;;;3.67;0.50;;;0.20;99.90;;;;;;5115630;28;20073;-85
2024/01/16 01:09:20;;;;;;;3.03;0.50;;;-0.50;99.90;;;;;;5115612;28;20591;-84
2024/01/16 01:11:46;;;;;;;4.25;0.50;;;-0.40;99.90;;;;;;5115663;28;20122;-84
2024/01/16 01:14:12;;;;;;;4.72;0.50;;;0.30;99.90;;;;;;5116876;28;20084;-84
2024/01/16 01:16:37;;;;;;;2.53;0.40;;;-0.40;99.90;;;;;;5116892;28;20066;-84
2024/01/16 01:19:03;;;;;;;3.00;0.40;;;1.00;99.90;;;;;;5115070;28;20419;-84
2024/01/16 01:21:29;;;;;;;4.13;0.40;;;0.10;99.90;;;;;;5115479;28;20055;-84
2024/01/16 01:23:55;;;;;;;3.00;0.38;;;0.20;99.90;;;;;;5115717;28;20058;-84
2024/01/16 01:26:21;;;;;;;5.35;0.50;;;0.20;99.90;;;;;;5116789;28;20126;-84
2024/01/16 01:28:47;;;;;;;2.97;0.40;;;-0.70;99.90;;;;;;5116472;28;20031;-84
2024/01/16 01:31:13;;;;;;;4.30;0.40;;;1.00;99.90;;;;;;5115573;28;20042;-85
2024/01/16 01:33:39;;;;;;;2.97;0.40;;;-0.10;99.90;;;;;;5115145;28;20039;-85
2024/01/16 01:36:05;;;;;;;6.35;0.70;;;-0.20;99.90;;;;;;5115548;28;20134;-85
2024/01/16 01:38:31;;;;;;;4.88;0.38;;;-0.80;99.90;;;;;;5115016;28;20093;-84
2024/01/16 01:40:57;;;;;;;7.88;0.70;;;-0.70;99.90;;;;;;5114957;28;20418;-85
2024/01/16 01:43:26;;;;;;;4.82;0.40;;;-0.30;99.90;;;;;;5115323;28;20487;-84
2024/01/16 01:46:15;;;;;;;1.75;0.70;;;-0.90;99.90;;;;;;5116365;28;20035;-85
2024/01/16 01:48:42;;;;;;;4.35;0.60;;;-0.90;99.90;;;;;;5098045;28;20058;-84
2024/01/16 01:51:12;;;;;;;7.68;0.40;;;-0.90;99.90;;;;;;5115450;28;20040;-84
2024/01/16 01:53:39;;;;;;;2.63;0.40;;;-0.90;99.90;;;;;;5115019;28;20059;-85
2024/01/16 01:56:08;;;;;;;6.10;0.40;;;-1.00;99.90;;;;;;5114872;28;20043;-84
2024/01/16 01:58:36;;;;;;;4.22;0.60;;;0.20;99.90;;;;;;5114634;28;20043;-85
2024/01/16 02:01:03;;;;;;;2.15;0.40;;;-0.50;99.90;;;;;;5113593;28;20496;-84
2024/01/16 02:03:31;;;;;;;5.93;0.40;;;-0.90;99.90;;;;;;5114526;28;20059;-85
2024/01/16 02:05:58;;;;;;;5.20;0.40;;;-1.00;99.90;;;;;;5115491;28;20433;-85
2024/01/16 02:08:24;;;;;;;7.35;0.52;;;-1.00;99.90;;;;;;5114646;28;20079;-85
2024/01/16 02:10:50;;;;;;;4.18;0.40;;;-0.60;99.90;;;;;;5114784;28;20397;-85
2024/01/16 02:13:20;;;;;;;2.45;0.43;;;-0.90;99.90;;;;;;5114521;28;20047;-85
2024/01/16 02:15:46;;;;;;;4.88;0.40;;;-1.00;99.90;;;;;;5115738;28;20047;-85
2024/01/16 02:18:12;;;;;;;5.63;0.60;;;0.00;99.90;;;;;;5114337;28;20399;-84
2024/01/16 02:20:38;;;;;;;6.00;0.50;;;-0.20;99.90;;;;;;5113714;28;20044;-85
2024/01/16 02:23:04;;;;;;;6.07;0.40;;;0.40;99.90;;;;;;5113910;28;20043;-84
2024/01/16 02:25:30;;;;;;;7.55;0.75;;;-1.00;99.90;;;;;;5115349;28;20071;-84
2024/01/16 02:27:57;;;;;;;6.80;0.50;;;-1.00;99.90;;;;;;5113963;28;20035;-84
2024/01/16 02:30:22;;;;;;;6.82;0.80;;;-0.90;99.90;;;;;;5114327;28;20080;-84
2024/01/16 02:32:48;;;;;;;7.00;0.50;;;-0.80;99.90;;;;;;5114150;28;20073;-86
2024/01/16 02:35:15;;;;;;;7.80;0.60;;;-0.80;99.90;;;;;;5115041;28;20082;-85
2024/01/16 02:37:40;;;;;;;4.93;0.50;;;-0.60;99.90;;;;;;5114022;28;20043;-85
2024/01/16 02:40:06;;;;;;;5.18;0.60;;;-0.50;99.90;;;;;;5113889;28;20404;-85
2024/01/16 02:42:37;;;;;;;4.20;0.40;;;-0.40;99.90;;;;;;5114149;28;20071;-85
2024/01/16 02:45:04;;;;;;;2.53;0.40;;;0.70;99.90;;;;;;5113948;28;20400;-85
2024/01/16 02:47:29;;;;;;;2.15;0.30;;;-0.50;99.90;;;;;;5113855;28;20044;-85
2024/01/16 02:49:55;;;;;;;6.75;0.50;;;-0.50;99.90;;;;;;5113539;28;20544;-85
2024/01/16 02:52:21;;;;;;;5.85;0.70;;;-0.10;99.90;;;;;;5114363;28;20146;-85
2024/01/16 02:54:47;;;;;;;6.68;0.73;;;-0.60;99.90;;;;;;5113227;28;20036;-85
2024/01/16 02:57:12;;;;;;;4.40;0.60;;;1.20;99.90;;;;;;5096800;28;20363;-84
2024/01/16 02:59:38;;;;;;;12.70;0.60;;;-0.70;99.90;;;;;;5114563;28;20088;-84
2024/01/16 03:02:04;;;;;;;8.75;0.80;;;0.70;99.90;;;;;;5095670;28;20043;-85
2024/01/16 03:04:29;;;;;;;6.30;0.70;;;-0.50;99.90;;;;;;5114094;28;20130;-86
2024/01/16 03:06:55;;;;;;;8.23;0.60;;;-0.70;99.90;;;;;;5114000;28;20472;-86
2024/01/16 03:09:21;;;;;;;8.85;0.90;;;-0.80;99.90;;;;;;5113399;28;20047;-85
2024/01/16 03:11:47;;;;;;;6.97;0.70;;;1.00;99.90;;;;;;5113183;28;20135;-84
2024/01/16 03:14:13;;;;;;;10.38;0.82;;;-0.30;99.90;;;;;;5113573;28;20104;-85
2024/01/16 03:16:40;;;;;;;6.07;0.63;;;0.40;99.90;;;;;;5113296;28;20558;-85
2024/01/16 03:19:06;;;;;;;3.42;0.50;;;-1.70;99.90;;;;;;5113117;28;20126;-85
2024/01/16 03:21:32;;;;;;;1.70;0.50;;;0.40;99.90;;;;;;5113948;28;20139;-84
2024/01/16 03:23:57;;;;;;;4.95;0.52;;;-0.90;99.90;;;;;;5114144;28;20464;-85
2024/01/16 03:26:23;;;;;;;3.80;0.60;;;0.00;99.90;;;;;;5113137;28;20130;-85
2024/01/16 03:28:49;;;;;;;9.57;0.90;;;-0.90;99.90;;;;;;5114443;28;20044;-85
2024/01/16 03:31:14;;;;;;;7.65;1.58;;;-1.00;99.90;;;;;;5114359;28;20403;-85
2024/01/16 03:33:42;;;;;;;5.25;0.70;;;1.40;99.90;;;;;;5114055;28;20116;-85
2024/01/16 03:36:12;;;;;;;9.07;0.68;;;-1.00;99.90;;;;;;5112873;28;20079;-85
2024/01/16 03:38:39;;;;;;;4.97;0.60;;;-0.90;99.90;;;;;;5113153;28;20468;-85
2024/01/16 03:41:06;;;;;;;8.25;0.70;;;0.00;99.90;;;;;;5112379;28;20423;-85
2024/01/16 03:43:36;;;;;;;6.65;1.30;;;-0.90;99.90;;;;;;5114171;28;20047;-84
2024/01/16 03:46:02;;;;;;;8.90;0.90;;;-0.90;99.90;;;;;;5112900;28;20488;-85
2024/01/16 03:48:27;;;;;;;9.93;1.10;;;0.10;99.90;;;;;;5113918;28;20094;-84
2024/01/16 03:50:54;;;;;;;9.00;0.60;;;-0.30;99.90;;;;;;5112510;28;20130;-85
2024/01/16 03:53:21;;;;;;;10.15;0.60;;;-0.80;99.90;;;;;;5113819;28;20508;-85
2024/01/16 03:55:47;;;;;;;7.55;1.88;;;0.30;99.90;;;;;;5095237;28;20077;-85
2024/01/16 03:58:13;;;;;;;12.07;0.60;;;0.20;99.90;;;;;;5113445;28;20084;-85
2024/01/16 04:00:39;;;;;;;6.53;0.60;;;-0.10;99.90;;;;;;5113715;28;20054;-85
2024/01/16 04:03:05;;;;;;;7.82;0.93;;;0.40;99.90;;;;;;5112263;28;20400;-85
2024/01/16 04:05:31;;;;;;;6.28;0.70;;;-0.80;99.90;;;;;;5129771;27;20055;-85
2024/01/16 04:07:57;;;;;;;4.38;0.60;;;-0.70;99.90;;;;;;5113467;28;20125;-85
2024/01/16 04:10:22;;;;;;;4.45;1.25;;;-0.80;99.90;;;;;;5113772;28;20407;-84
2024/01/16 04:12:48;;;;;;;7.45;0.90;;;-0.80;99.90;;;;;;5113832;28;20073;-85
2024/01/16 04:15:14;;;;;;;9.73;0.90;;;0.30;99.90;;;;;;5112478;28;20044;-85
2024/01/16 04:17:39;;;;;;;5.80;0.73;;;-0.10;99.90;;;;;;5112742;28;20062;-84
2024/01/16 04:20:06;;;;;;;6.22;0.80;;;-0.80;99.90;;;;;;5113367;28;20036;-85
2024/01/16 04:22:33;;;;;;;9.27;0.98;;;-0.80;99.90;;;;;;5112127;28;20486;-86
2024/01/16 04:24:58;;;;;;;7.68;1.05;;;-0.80;99.90;;;;;;5112120;28;20500;-85
2024/01/16 04:27:25;;;;;;;8.48;1.55;;;-0.80;99.90;;;;;;5113165;28;20036;-85
2024/01/16 04:29:51;;;;;;;5.95;0.60;;;-0.80;99.90;;;;;;5112092;28;20100;-85
2024/01/16 04:32:17;;;;;;;11.98;1.13;;;-0.80;99.90;;;;;;5112307;28;20039;-84
2024/01/16 04:34:43;;;;;;;11.10;0.90;;;-0.10;99.90;;;;;;5111792;28;20050;-84
2024/01/16 04:37:08;;;;;;;9.38;0.70;;;0.10;99.90;;;;;;5113196;28;20043;-84
2024/01/16 04:39:34;;;;;;;4.80;1.80;;;0.00;99.90;;;;;;5112312;28;20104;-84
2024/01/16 04:42:00;;;;;;;7.25;0.73;;;0.10;99.90;;;;;;5111863;28;20051;-85
2024/01/16 04:44:25;;;;;;;5.05;0.60;;;0.80;99.90;;;;;;5113385;28;20035;-84
2024/01/16 04:46:51;;;;;;;6.78;1.10;;;0.60;99.90;;;;;;5113392;28;20457;-85
2024/01/16 04:49:17;;;;;;;5.50;0.60;;;0.40;99.90;;;;;;5111982;28;20044;-84
2024/01/16 04:51:43;;;;;;;2.10;0.65;;;0.40;99.90;;;;;;5113280;28;20088;-84
2024/01/16 04:54:09;;;;;;;5.95;1.13;;;-0.30;99.90;;;;;;5094789;28;20051;-84
2024/01/16 04:56:35;;;;;;;7.22;0.77;;;-0.50;99.90;;;;;;5111735;28;20047;-85
2024/01/16 04:59:01;;;;;;;10.18;1.10;;;-1.50;99.90;;;;;;5113207;28;20044;-84
2024/01/16 05:01:26;;;;;;;8.57;0.70;;;-0.60;99.90;;;;;;5113157;28;20036;-84
2024/01/16 05:03:52;;;;;;;8.20;0.60;;;0.00;99.90;;;;;;5111977;28;20049;-84
2024/01/16 05:06:18;;;;;;;10.20;0.70;;;-0.50;99.90;;;;;;5095061;28;20040;-84
2024/01/16 05:08:43;;;;;;;5.80;1.92;;;-0.50;99.90;;;;;;5112982;28;20560;-84
2024/01/16 05:11:09;;;;;;;7.15;0.90;;;-0.60;99.90;;;;;;5094421;28;20434;-85
2024/01/16 05:13:35;;;;;;;8.95;1.25;;;-0.90;99.90;;;;;;5111935;28;20130;-83
2024/01/16 05:16:01;;;;;;;8.57;0.60;;;0.70;99.90;;;;;;5111496;28;20492;-84
2024/01/16 05:18:26;;;;;;;9.43;0.80;;;0.80;99.90;;;;;;5111983;28;20044;-84
2024/01/16 05:20:52;;;;;;;3.47;0.40;;;-0.60;99.90;;;;;;5112858;28;20040;-84
2024/01/16 05:23:18;;;;;;;5.65;0.70;;;0.30;99.90;;;;;;5112851;28;20067;-84
2024/01/16 05:25:44;;;;;;;7.72;0.75;;;-0.40;99.90;;;;;;5111743;28;20100;-85
2024/01/16 05:28:10;;;;;;;6.15;0.60;;;-0.40;99.90;;;;;;5111225;28;20088;-84
2024/01/16 05:30:35;;;;;;;8.30;0.50;;;-0.30;99.90;;;;;;5111430;28;20050;-84
2024/01/16 05:33:01;;;;;;;4.22;0.93;;;-0.70;99.90;;;;;;5111153;28;20039;-83
2024/01/16 05:35:28;;;;;;;8.50;0.60;;;-0.60;99.90;;;;;;5114597;28;20073;-83
2024/01/16 05:37:55;;;;;;;9.48;1.30;;;0.50;99.90;;;;;;5115097;28;20043;-84
2024/01/16 05:40:21;;;;;;;3.75;0.70;;;-0.70;99.90;;;;;;5115375;28;20040;-84
2024/01/16 05:42:50;;;;;;;7.22;0.70;;;-0.60;99.90;;;;;;5115505;28;20407;-84
2024/01/16 05:45:17;;;;;;;8.63;0.80;;;-0.60;99.90;;;;;;5116520;28;20388;-84
2024/01/16 05:47:43;;;;;;;6.15;0.90;;;0.20;99.90;;;;;;5115946;28;20035;-84
2024/01/16 05:50:08;;;;;;;5.78;0.80;;;0.40;99.90;;;;;;5115088;28;20047;-84
2024/01/16 05:52:35;;;;;;;8.35;0.93;;;-0.50;99.90;;;;;;5116017;28;20071;-85
2024/01/16 05:55:02;;;;;;;8.23;0.95;;;-0.60;99.90;;;;;;5115945;28;20499;-83
2024/01/16 05:57:31;;;;;;;4.82;0.90;;;-0.50;99.90;;;;;;5115042;28;20052;-84
2024/01/16 05:59:57;;;;;;;5.38;0.50;;;-0.50;99.90;;;;;;5097578;28;20130;-84
2024/01/16 06:02:23;;;;;;;7.18;0.98;;;0.20;99.90;;;;;;5097606;28;20059;-84
2024/01/16 06:04:48;;;;;;;14.70;1.13;;;-0.60;99.90;;;;;;5113771;28;20047;-84
2024/01/16 06:07:14;;;;;;;11.55;1.20;;;0.20;99.90;;;;;;5114377;28;20040;-85
2024/01/16 06:09:40;;;;;;;4.10;0.80;;;-0.80;99.90;;;;;;5113956;28;20039;-85
2024/01/16 06:12:06;;;;;;;5.95;0.80;;;0.20;99.90;;;;;;5114103;28;20062;-84
2024/01/16 06:14:33;;;;;;;10.13;0.60;;;-0.50;99.90;;;;;;5114479;28;20051;-84
2024/01/16 06:16:58;;;;;;;9.98;0.73;;;-0.10;99.90;;;;;;5114520;28;20079;-84
2024/01/16 06:19:24;;;;;;;9.90;1.67;;;-0.60;99.90;;;;;;5114222;28;20074;-84
2024/01/16 06:21:50;;;;;;;8.40;1.27;;;;;;;;;;5115039;28;20036;-84
2024/01/16 06:24:16;;;;;;;5.00;0.75;;;-0.50;99.90;;;;;;5114906;28;20040;-84
2024/01/16 06:26:42;;;;;;;15.88;1.42;;;-0.50;99.90;;;;;;5114239;28;20043;-84
2024/01/16 06:29:08;;;;;;;7.95;0.70;;;1.40;99.90;;;;;;5114223;28;20035;-85
2024/01/16 06:31:34;;;;;;;4.45;0.90;;;-0.60;99.90;;;;;;5113114;28;20088;-84
2024/01/16 06:34:00;;;;;;;8.95;1.17;;;0.10;99.90;;;;;;5113640;28;20050;-83
2024/01/16 06:36:25;;;;;;;14.38;0.95;;;-0.60;99.90;;;;;;5113725;28;20037;-84
2024/01/16 06:38:51;;;;;;;7.82;0.80;;;-0.80;99.90;;;;;;5113825;28;20032;-84
2024/01/16 06:41:17;;;;;;;9.63;1.15;;;-0.60;99.90;;;;;;5096549;28;20043;-84
2024/01/16 06:43:42;;;;;;;7.93;1.25;;;0.00;99.90;;;;;;5113482;28;20039;-83
2024/01/16 06:46:08;;;;;;;10.25;0.90;;;-0.50;99.90;;;;;;5096527;28;20043;-84
2024/01/16 06:48:38;;;;;;;8.20;0.60;;;-0.50;99.90;;;;;;5113728;28;20047;-84
2024/01/16 06:51:04;;;;;;;6.75;0.90;;;0.40;99.90;;;;;;5119415;27;20051;-84
2024/01/16 06:53:30;;;;;;;5.97;0.70;;;-0.50;99.90;;;;;;5096506;28;20046;-84
2024/01/16 06:55:56;;;;;;;8.43;0.77;;;-0.50;99.90;;;;;;5113897;28;20055;-84
2024/01/16 06:58:21;;;;;;;11.70;0.85;;;-0.40;99.90;;;;;;5095902;28;20043;-84
2024/01/16 07:00:47;;;;;;;8.45;0.82;;;-0.40;99.90;;;;;;5114908;28;20043;-85
2024/01/16 07:03:13;;;;;;;7.38;0.85;;;-0.70;99.90;;;;;;5113114;28;20498;-85
2024/01/16 07:05:43;;;;;;;10.80;0.80;;;0.90;99.90;;;;;;5114209;28;20047;-84
2024/01/16 07:08:09;;;;;;;11.07;1.17;;;-0.30;99.90;;;;;;5114473;28;20036;-84
2024/01/16 07:10:35;;;;;;;8.93;0.70;;;1.20;99.90;;;;;;5114955;28;20420;-84
2024/01/16 07:13:01;;;;;;;9.93;1.38;;;0.00;99.90;;;;;;5113197;28;20035;-84
2024/01/16 07:15:27;;;;;;;5.53;0.90;;;-0.30;99.90;;;;;;5113176;28;20074;-84
2024/01/16 07:17:53;;;;;;;5.05;0.90;;;0.00;99.90;;;;;;5113414;28;20441;-84
2024/01/16 07:20:19;;;;;;;6.43;0.93;;;-1.00;99.90;;;;;;5113998;28;20047;-83
2024/01/16 07:22:45;;;;;;;14.05;1.30;;;-0.10;99.90;;;;;;5095846;28;20039;-83
2024/01/16 07:25:11;;;;;;;5.93;0.82;;;0.40;99.90;;;;;;5113221;28;20394;-83
2024/01/16 07:27:37;;;;;;;5.45;0.80;;;-1.00;99.90;;;;;;5113647;28;20513;-84
2024/01/16 07:30:06;;;;;;;12.90;0.75;;;0.30;99.90;;;;;;5113864;28;20486;-84
2024/01/16 07:32:32;;;;;;;6.00;0.85;;;-0.30;99.90;;;;;;5113789;28;20116;-84
2024/01/16 07:34:58;;;;;;;5.72;0.93;;;-0.50;99.90;;;;;;5096222;28;20399;-83
2024/01/16 07:37:24;;;;;;;5.93;1.05;;;0.30;99.90;;;;;;5112850;28;20039;-84
2024/01/16 07:39:50;;;;;;;10.20;0.90;;;0.20;99.90;;;;;;5112384;28;20050;-84
2024/01/16 07:42:15;;;;;;;8.55;1.20;;;-0.40;99.90;;;;;;5095727;28;20040;-83
2024/01/16 07:44:41;;;;;;;10.63;1.88;;;-0.30;99.90;;;;;;5112755;28;20043;-84
2024/01/16 07:47:07;;;;;;;11.88;0.90;;;0.70;99.90;;;;;;5112649;28;20396;-84
2024/01/16 07:49:33;;;;;;;7.97;0.90;;;0.80;99.90;;;;;;5112256;28;20028;-84
2024/01/16 07:51:59;;;;;;;5.65;0.60;;;-0.30;99.90;;;;;;5095793;28;20122;-84
2024/01/16 07:54:25;;;;;;;3.05;0.60;;;0.20;99.90;;;;;;5112507;28;20118;-84
2024/01/16 07:56:51;;;;;;;6.70;0.80;;;0.70;99.90;;;;;;5112825;28;20047;-84
2024/01/16 07:59:17;;;;;;;3.42;0.70;;;0.20;99.90;;;;;;5111147;28;20042;-84
2024/01/16 08:01:43;;;;;;;9.85;1.10;;;-0.20;99.90;;;;;;5112560;28;20050;-84
2024/01/16 08:04:09;;;;;;;9.95;0.82;;;-0.20;99.90;;;;;;5112699;28;20039;-84
2024/01/16 08:06:35;;;;;;;11.00;1.20;;;-0.20;99.90;;;;;;5113785;28;20404;-84
2024/01/16 08:09:00;;;;;;;11.10;0.98;;;0.50;99.90;;;;;;5111751;28;20047;-84
2024/01/16 08:11:26;;;;;;;15.85;1.27;;;-0.10;99.90;;;;;;5112652;28;20062;-84
2024/01/16 08:13:52;;;;;;;4.63;1.73;;;0.30;99.90;;;;;;5111408;28;20404;-83
2024/01/16 08:16:17;;;;;;;8.43;0.80;;;-0.10;99.90;;;;;;5112105;28;20039;-84
2024/01/16 08:18:43;;;;;;;10.13;0.95;;;0.70;99.90;;;;;;5111404;28;20482;-86
2024/01/16 08:21:09;;;;;;;6.53;1.08;;;0.20;99.90;;;;;;5113301;28;20424;-85
2024/01/16 08:23:34;;;;;;;8.45;1.05;;;0.70;99.90;;;;;;5112617;28;20043;-85
2024/01/16 08:26:00;;;;;;;5.35;0.68;;;0.90;99.90;;;;;;5111642;28;20047;-85
2024/01/16 08:28:27;;;;;;;12.40;1.02;;;0.20;99.90;;;;;;5111769;28;20042;-86
2024/01/16 08:30:52;;;;;;;3.70;0.68;;;-0.30;99.90;;;;;;5113629;28;20039;-84
2024/01/16 08:33:18;;;;;;;4.82;0.80;;;0.60;99.90;;;;;;5095375;28;20131;-84
2024/01/16 08:35:44;;;;;;;8.48;0.70;;;1.90;99.90;;;;;;5111706;28;20039;-84
2024/01/16 08:38:10;;;;;;;3.72;0.55;;;-0.10;99.90;;;;;;5111625;28;20051;-84
2024/01/16 08:40:35;;;;;;;7.55;0.80;;;0.20;99.90;;;;;;5111760;28;20082;-84
2024/01/16 08:43:01;;;;;;;8.07;0.90;;;1.10;99.90;;;;;;5111799;28;20043;-83
2024/01/16 08:45:27;;;;;;;4.50;1.00;;;0.10;99.90;;;;;;5112433;28;20043;-83
2024/01/16 08:47:52;;;;;;;8.02;1.25;;;0.00;99.90;;;;;;5111787;28;20424;-84
2024/01/16 08:50:18;;;;;;;5.22;0.95;;;1.30;99.90;;;;;;5111752;28;20047;-84
2024/01/16 08:52:44;;;;;;;8.95;1.02;;;0.00;99.90;;;;;;5111823;28;20392;-85
2024/01/16 08:55:10;;;;;;;7.80;0.80;;;-0.60;99.90;;;;;;5094848;28;20480;-84
2024/01/16 08:57:37;;;;;;;5.68;0.90;;;-0.70;99.90;;;;;;5111675;28;20039;-84
2024/01/16 09:00:06;;;;;;;7.85;0.70;;;0.50;99.90;;;;;;5112173;28;20059;-83
2024/01/16 09:02:32;;;;;;;3.55;0.70;;;0.80;99.90;;;;;;5112892;28;20048;-85
2024/01/16 09:04:58;;;;;;;4.50;0.82;;;0.60;99.90;;;;;;5094730;28;20047;-85
2024/01/16 09:07:25;;;;;;;7.97;0.90;;;1.50;99.90;;;;;;5111875;28;20040;-84
2024/01/16 09:09:50;;;;;;;7.10;0.82;;;0.20;99.90;;;;;;5114592;28;20526;-84
2024/01/16 09:12:16;;;;;;;5.95;0.68;;;0.10;99.90;;;;;;5115765;28;20035;-84
2024/01/16 09:14:42;;;;;;;10.48;0.80;;;0.30;99.90;;;;;;5098862;28;20450;-85
2024/01/16 09:17:08;;;;;;;3.03;0.50;;;0.70;99.90;;;;;;5115170;28;20043;-84
2024/01/16 09:19:33;;;;;;;7.25;0.70;;;0.90;99.90;;;;;;5114868;28;20071;-85
2024/01/16 09:21:59;;;;;;;1.40;0.70;;;0.40;99.90;;;;;;5115721;28;20039;-85
2024/01/16 09:24:25;;;;;;;3.78;0.50;;;0.40;99.90;;;;;;5116681;28;20445;-84
2024/01/16 09:26:50;;;;;;;5.43;0.60;;;1.70;99.90;;;;;;5096822;28;20052;-84
2024/01/16 09:29:16;;;;;;;7.10;0.60;;;1.20;99.90;;;;;;5098680;28;20392;-84
2024/01/16 09:31:42;;;;;;;5.03;0.60;;;0.50;99.90;;;;;;5116723;28;20048;-84
2024/01/16 09:34:08;;;;;;;2.30;0.45;;;0.50;99.90;;;;;;5116346;28;20066;-83
2024/01/16 09:36:37;;;;;;;5.93;0.80;;;0.70;99.90;;;;;;5116226;28;20043;-84
2024/01/16 09:39:07;;;;;;;4.82;0.70;;;0.70;99.90;;;;;;5114548;28;20074;-84
2024/01/16 09:41:34;;;;;;;2.63;0.70;;;1.20;99.90;;;;;;5114940;28;20044;-82
2024/01/16 09:44:00;;;;;;;5.35;0.70;;;1.90;99.90;;;;;;5114735;28;20066;-84
2024/01/16 09:46:26;;;;;;;6.45;0.63;;;0.40;99.90;;;;;;5115091;28;20055;-83
2024/01/16 09:48:56;;;;;;;2.97;0.50;;;0.70;99.90;;;;;;5108165;28;20075;-85
2024/01/16 09:51:22;;;;;;;6.07;0.70;;;0.80;99.90;;;;;;5097299;28;20050;-83
2024/01/16 09:53:47;;;;;;;3.33;0.60;;;0.80;99.90;;;;;;5114961;28;20044;-83
2024/01/16 09:56:20;;;;;;;4.55;0.80;;;1.10;99.90;;;;;;5114105;28;20047;-84
2024/01/16 09:58:48;;;;;;;4.20;0.70;;;1.80;99.90;;;;;;5114632;28;20051;-84
2024/01/16 10:01:16;;;;;;;4.82;0.60;;;2.20;99.90;;;;;;5114480;28;20047;-84
2024/01/16 10:03:44;;;;;;;8.10;0.70;;;0.60;99.90;;;;;;5115663;28;20054;-83
2024/01/16 10:06:11;;;;;;;4.55;0.70;;;0.70;99.90;;;;;;5114416;28;20051;-83
2024/01/16 10:08:38;;;;;;;7.15;0.70;;;0.80;99.90;;;;;;5114584;28;20047;-82
2024/01/16 10:11:04;;;;;;;7.50;0.50;;;0.90;99.90;;;;;;5113904;28;20110;-83
2024/01/16 10:13:32;;;;;;;6.28;0.60;;;1.00;99.90;;;;;;5114495;28;20040;-83
2024/01/16 10:15:59;;;;;;;7.55;0.75;;;2.50;99.90;;;;;;5113867;28;20126;-83
2024/01/16 10:18:25;;;;;;;2.50;0.50;;;1.30;99.90;;;;;;5114095;28;20039;-83
2024/01/16 10:20:53;;;;;;;1.65;0.47;;;2.30;99.90;;;;;;5113265;28;20047;-83
2024/01/16 10:23:26;;;;;;;3.25;0.60;;;1.90;99.90;;;;;;5114435;28;20035;-85
2024/01/16 10:26:08;;;;;;;8.65;0.93;;;0.90;99.90;;;;;;5115679;28;20050;-84
2024/01/16 10:28:41;;;;;;;4.30;0.63;;;1.40;99.90;;;;;;5115424;27;20468;-85
2024/01/16 10:31:14;;;;;;;3.88;0.60;;;1.40;99.90;;;;;;5115516;28;20055;-85
2024/01/16 10:33:40;;;;;;;6.20;0.80;;;1.50;99.90;;;;;;5114270;28;20052;-84
2024/01/16 10:36:13;;;;;;;5.82;0.70;;;1.40;99.90;;;;;;5115264;28;20040;-84
2024/01/16 10:38:40;;;;;;;4.18;0.68;;;1.50;99.90;;;;;;5114031;28;20039;-84
2024/01/16 10:41:10;;;;;;;3.80;0.70;;;1.50;99.90;;;;;;5113136;28;20062;-85
2024/01/16 10:43:37;;;;;;;3.22;0.40;;;2.30;99.90;;;;;;5113698;28;20388;-82
2024/01/16 10:46:14;;;;;;;3.72;0.50;;;1.00;99.90;;;;;;5114970;28;20047;-82
2024/01/16 10:48:43;;;;;;;7.00;0.63;;;1.40;99.90;;;;;;5114872;28;20100;-82
2024/01/16 10:51:15;;;;;;;6.97;0.60;;;1.40;99.90;;;;;;5113818;28;20123;-83
2024/01/16 10:53:46;;;;;;;1.52;0.60;;;1.40;99.90;;;;;;5113635;28;20047;-83
2024/01/16 10:56:12;;;;;;;3.10;0.60;;;2.40;99.90;;;;;;5115311;28;20058;-83
2024/01/16 10:58:42;;;;;;;2.80;0.52;;;2.50;99.90;;;;;;5114493;27;20103;-86
2024/01/16 11:01:15;;;;;;;2.28;0.45;;;1.40;99.90;;;;;;5113319;28;20047;-84
2024/01/16 11:03:48;;;;;;;4.55;0.68;;;1.40;99.90;;;;;;5114380;27;20181;-85
2024/01/16 11:06:16;;;;;;;2.58;0.60;;;1.70;99.90;;;;;;5113280;28;20052;-83
2024/01/16 11:08:42;;;;;;;1.52;0.60;;;1.40;99.90;;;;;;5114887;28;20430;-83
2024/01/16 11:11:09;;;;;;;2.35;0.60;;;1.40;99.90;;;;;;5118819;27;20510;-84
2024/01/16 11:13:36;;;;;;;2.92;0.70;;;1.70;99.90;;;;;;5113370;28;20043;-83
2024/01/16 11:16:06;;;;;;;2.25;0.47;;;1.40;99.90;;;;;;5113379;28;20043;-83
2024/01/16 11:18:34;;;;;;;2.65;0.70;;;1.40;99.90;;;;;;5119920;27;20089;-84
2024/01/16 11:21:02;;;;;;;1.42;0.50;;;2.70;99.90;;;;;;5135283;27;20173;-84
2024/01/16 11:23:28;;;;;;;7.00;0.70;;;1.90;99.90;;;;;;5116285;27;20031;-82
2024/01/16 11:25:54;;;;;;;3.97;0.68;;;1.80;99.90;;;;;;5113119;27;20039;-82
2024/01/16 11:28:19;;;;;;;2.78;0.60;;;1.50;99.90;;;;;;5113082;28;20396;-82
2024/01/16 11:30:45;;;;;;;5.07;0.70;;;1.30;99.90;;;;;;5112858;28;20036;-84
2024/01/16 11:33:32;;;;;;;4.05;0.82;;;2.40;99.90;;;;;;5114040;28;20048;-82
2024/01/16 11:35:58;;;;;;;3.97;0.80;;;1.30;99.90;;;;;;5114368;28;20403;-84
2024/01/16 11:38:26;;;;;;;4.00;0.70;;;1.20;99.90;;;;;;5095604;28;20114;-83
2024/01/16 11:40:56;;;;;;;3.55;1.40;;;1.20;99.90;;;;;;5112588;28;20035;-83
2024/01/16 11:43:35;;;;;;;1.85;0.70;;;1.80;99.90;;;;;;5112825;28;20039;-82
2024/01/16 11:46:04;;;;;;;0.85;0.73;;;1.60;99.90;;;;;;5114006;28;20119;-83
2024/01/16 11:48:30;;;;;;;4.40;0.82;;;1.20;99.90;;;;;;5113939;28;20040;-84
2024/01/16 11:50:55;;;;;;;3.50;0.95;;;1.10;99.90;;;;;;5112755;28;20043;-84
2024/01/16 11:53:31;;;;;;;3.13;0.80;;;1.10;99.90;;;;;;5112841;28;20051;-83
2024/01/16 11:56:02;;;;;;;3.70;0.68;;;1.20;99.90;;;;;;5114132;28;20531;-83
2024/01/16 11:58:52;;;;;;;3.47;0.90;;;2.10;99.90;;;;;;5110900;28;20040;-85
2024/01/16 12:01:20;;;;;;;2.45;0.70;;;1.20;99.90;;;;;;5106167;28;20446;-84
2024/01/16 12:03:46;;;;;;;5.95;0.80;;;1.30;99.90;;;;;;5113645;28;20128;-84
2024/01/16 12:06:16;;;;;;;3.08;1.08;;;1.00;99.90;;;;;;5112832;28;20373;-82
2024/01/16 12:08:42;;;;;;;3.38;1.00;;;1.30;99.90;;;;;;5112260;28;20142;-83
2024/01/16 12:11:07;;;;;;;3.92;0.80;;;1.40;99.90;;;;;;5112341;28;20071;-85
2024/01/16 12:13:33;;;;;;;3.63;0.75;;;2.30;99.90;;;;;;5112249;28;20043;-84
2024/01/16 12:16:05;;;;;;;4.05;0.88;;;2.60;99.90;;;;;;5112346;28;20050;-84
2024/01/16 12:18:30;;;;;;;4.78;0.80;;;2.20;99.90;;;;;;5112079;28;20056;-85
2024/01/16 12:20:56;;;;;;;3.10;0.90;;;2.80;99.90;;;;;;5112294;28;20047;-83
2024/01/16 12:23:23;;;;;;;3.78;0.68;;;2.00;99.90;;;;;;5112678;28;20488;-84
2024/01/16 12:25:54;;;;;;;1.67;0.85;;;2.40;99.90;;;;;;5114478;28;20449;-83
2024/01/16 12:28:21;;;;;;;2.05;0.80;;;1.50;99.90;;;;;;5115785;28;20047;-83
2024/01/16 12:30:53;;;;;;;2.90;1.05;;;2.50;99.90;;;;;;5129560;27;20050;-86
2024/01/16 12:33:22;;;;;;;2.85;0.90;;;2.40;99.90;;;;;;5112158;28;20039;-83
2024/01/16 12:35:48;;;;;;;6.18;0.80;;;1.50;99.90;;;;;;5111748;28;20073;-82
2024/01/16 12:38:16;;;;;;;2.25;0.80;;;1.50;99.90;;;;;;5112441;28;20108;-83
2024/01/16 12:40:47;;;;;;;6.70;0.80;;;1.40;99.90;;;;;;5112103;28;20081;-83
2024/01/16 12:43:13;;;;;;;3.80;0.85;;;1.40;99.90;;;;;;5114068;28;20426;-83
2024/01/16 12:45:39;;;;;;;8.48;1.15;;;2.00;99.90;;;;;;5117816;28;20105;-83
2024/01/16 12:48:05;;;;;;;4.95;0.80;;;2.30;99.90;;;;;;5116303;28;20082;-84
2024/01/16 12:50:31;;;;;;;6.15;1.00;;;1.30;99.90;;;;;;5116169;28;20044;-83